createdAt,value
2024-01-31T00:01:55.147Z,18.67
2024-01-31T00:04:57.676Z,18.63
2024-01-31T00:08:00.268Z,20.20
2024-01-31T00:11:02.667Z,19.15
2024-01-31T00:14:08.008Z,19.17
2024-01-31T00:17:10.563Z,19.70
2024-01-31T00:20:13.572Z,17.77
2024-01-31T00:23:16.140Z,16.92
2024-01-31T00:26:18.576Z,17.30
2024-01-31T00:29:21.164Z,16.17
2024-01-31T00:32:23.650Z,17.92
2024-01-31T00:35:26.231Z,16.90
2024-01-31T00:38:28.713Z,16.48
2024-01-31T00:41:31.829Z,17.52
2024-01-31T00:44:34.395Z,19.25
2024-01-31T00:47:39.740Z,18.08
2024-01-31T00:50:42.405Z,16.65
2024-01-31T00:53:45.052Z,17.35
2024-01-31T00:56:47.603Z,17.08
2024-01-31T00:59:50.060Z,17.35
2024-01-31T01:02:52.535Z,16.77
2024-01-31T01:05:55.039Z,19.65
2024-01-31T01:08:57.541Z,16.80
2024-01-31T01:12:02.462Z,17.15
2024-01-31T01:15:15.266Z,17.17
2024-01-31T01:18:19.139Z,16.55
2024-01-31T01:21:21.660Z,17.52
2024-01-31T01:24:25.325Z,17.90
2024-01-31T01:27:27.805Z,16.65
2024-01-31T01:30:30.598Z,19.90
2024-01-31T01:33:33.169Z,16.92
2024-01-31T01:36:38.013Z,17.98
2024-01-31T01:39:40.765Z,17.15
2024-01-31T01:42:43.362Z,18.90
2024-01-31T01:45:46.234Z,17.88
2024-01-31T01:48:49.118Z,18.75
2024-01-31T01:51:52.047Z,19.63
2024-01-31T01:54:54.713Z,19.05
2024-01-31T01:57:57.246Z,22.05
2024-01-31T02:01:03.070Z,23.77
2024-01-31T02:04:05.707Z,20.77
2024-01-31T02:07:08.288Z,24.85
2024-01-31T02:10:11.064Z,25.40
2024-01-31T02:13:13.583Z,28.13
2024-01-31T02:16:16.091Z,27.02
2024-01-31T02:19:18.645Z,25.77
2024-01-31T02:22:21.590Z,23.58
2024-01-31T02:25:24.051Z,24.42
2024-01-31T02:28:26.574Z,25.45
2024-01-31T02:31:29.051Z,22.73
2024-01-31T02:34:31.782Z,23.95
2024-01-31T02:37:34.453Z,23.70
2024-01-31T02:40:39.678Z,21.90
2024-01-31T02:43:43.273Z,24.30
2024-01-31T02:46:45.881Z,24.20
2024-01-31T02:49:48.439Z,21.77
2024-01-31T02:52:53.147Z,25.88
2024-01-31T02:55:55.557Z,27.33
2024-01-31T02:58:57.940Z,26.48
2024-01-31T03:02:00.519Z,25.05
2024-01-31T03:05:03.278Z,26.60
2024-01-31T03:08:06.047Z,24.45
2024-01-31T03:11:08.706Z,25.92
2024-01-31T03:14:16.431Z,23.27
2024-01-31T03:17:18.897Z,23.25
2024-01-31T03:20:21.385Z,23.27
2024-01-31T03:23:24.071Z,23.10
2024-01-31T03:26:26.606Z,20.75
2024-01-31T03:29:29.054Z,20.80
2024-01-31T03:32:32.315Z,21.42
2024-01-31T03:35:34.805Z,20.33
2024-01-31T03:38:37.276Z,21.95
2024-01-31T03:41:46.009Z,19.40
2024-01-31T03:44:48.466Z,22.00
2024-01-31T03:47:52.592Z,22.48
2024-01-31T03:53:57.165Z,19.55
2024-01-31T03:56:59.580Z,22.15
2024-01-31T04:00:06.981Z,21.02
2024-01-31T04:03:12.673Z,21.58
2024-01-31T04:06:15.293Z,21.92
2024-01-31T04:09:20.503Z,24.58
2024-01-31T04:12:23.114Z,23.95
2024-01-31T04:15:25.952Z,23.27
2024-01-31T04:18:28.521Z,24.05
2024-01-31T04:21:30.958Z,23.00
2024-01-31T04:24:35.601Z,24.15
2024-01-31T04:27:38.082Z,21.85
2024-01-31T04:30:40.583Z,22.35
2024-01-31T04:33:43.881Z,21.73
2024-01-31T04:36:46.431Z,23.05
2024-01-31T04:39:51.841Z,25.02
2024-01-31T04:42:54.829Z,21.55
2024-01-31T04:45:57.848Z,20.90
2024-01-31T04:49:02.962Z,20.58
2024-01-31T04:52:06.421Z,21.95
2024-01-31T04:55:09.243Z,21.75
2024-01-31T04:58:17.429Z,20.15
2024-01-31T05:01:19.924Z,22.70
2024-01-31T05:04:22.556Z,19.75
2024-01-31T05:07:25.163Z,21.05
2024-01-31T05:10:30.376Z,20.98
2024-01-31T05:13:38.264Z,21.50
2024-01-31T05:16:44.175Z,22.40
2024-01-31T05:19:49.016Z,22.10
2024-01-31T05:22:52.455Z,21.17
2024-01-31T05:25:57.105Z,21.98
2024-01-31T05:28:59.658Z,22.52
2024-01-31T05:32:02.124Z,27.52
2024-01-31T05:35:05.047Z,24.98
2024-01-31T05:38:07.645Z,24.15
2024-01-31T05:41:11.267Z,26.35
2024-01-31T05:44:13.743Z,22.38
2024-01-31T05:47:16.252Z,23.15
2024-01-31T05:50:18.824Z,22.50
2024-01-31T05:53:21.775Z,26.80
2024-01-31T05:56:24.362Z,23.30
2024-01-31T05:59:27.014Z,24.70
2024-01-31T06:02:29.602Z,22.73
2024-01-31T06:05:34.642Z,23.80
2024-01-31T06:08:37.064Z,25.27
2024-01-31T06:11:39.842Z,23.25
2024-01-31T06:14:43.239Z,24.77
2024-01-31T06:17:48.832Z,26.27
2024-01-31T06:20:53.666Z,24.08
2024-01-31T06:23:56.891Z,24.67
2024-01-31T06:26:59.587Z,23.73
2024-01-31T06:30:02.335Z,24.13
2024-01-31T06:33:08.865Z,23.58
2024-01-31T06:36:11.503Z,22.10
2024-01-31T06:39:14.242Z,24.48
2024-01-31T06:42:19.341Z,25.35
2024-01-31T06:45:21.876Z,23.88
2024-01-31T06:48:25.738Z,25.45
2024-01-31T06:51:28.338Z,25.98
2024-01-31T06:54:30.933Z,28.25
2024-01-31T06:57:36.122Z,26.90
2024-01-31T07:00:41.288Z,29.10
2024-01-31T07:03:44.781Z,28.10
2024-01-31T07:06:47.493Z,27.35
2024-01-31T07:09:49.978Z,26.90
2024-01-31T07:12:54.361Z,26.42
2024-01-31T07:16:00.389Z,26.23
2024-01-31T07:19:05.209Z,26.83
2024-01-31T07:22:07.839Z,24.85
2024-01-31T07:25:14.622Z,28.55
2024-01-31T07:28:21.031Z,31.58
2024-01-31T07:31:23.721Z,25.40
2024-01-31T07:34:29.378Z,26.70
2024-01-31T07:37:32.201Z,25.15
2024-01-31T07:40:34.753Z,28.20
2024-01-31T07:43:44.884Z,26.63
2024-01-31T07:46:51.681Z,23.85
2024-01-31T07:49:56.517Z,19.83
2024-01-31T07:52:59.392Z,21.67
2024-01-31T07:56:05.413Z,23.88
2024-01-31T07:59:11.488Z,21.02
2024-01-31T08:02:16.721Z,19.85
2024-01-31T08:05:19.387Z,22.58
2024-01-31T08:08:25.591Z,23.00
2024-01-31T08:11:28.696Z,23.67
2024-01-31T08:14:31.308Z,22.20
2024-01-31T08:17:37.546Z,21.63
2024-01-31T08:20:40.350Z,23.52
2024-01-31T08:23:42.997Z,22.20
2024-01-31T08:26:46.182Z,25.02
2024-01-31T08:29:48.643Z,25.42
2024-01-31T08:32:51.664Z,27.52
2024-01-31T08:35:54.538Z,23.23
2024-01-31T08:38:57.016Z,24.67
2024-01-31T08:42:01.825Z,22.42
2024-01-31T08:45:04.867Z,24.13
2024-01-31T08:48:10.321Z,24.05
2024-01-31T08:51:12.894Z,25.50
2024-01-31T08:54:15.694Z,23.02
2024-01-31T08:57:20.626Z,23.60
2024-01-31T09:00:23.385Z,23.27
2024-01-31T09:03:25.880Z,23.40
2024-01-31T09:06:28.850Z,22.13
2024-01-31T09:09:32.752Z,22.77
2024-01-31T09:12:35.354Z,19.45
2024-01-31T09:15:38.165Z,20.92
2024-01-31T09:18:42.355Z,21.63
2024-01-31T09:21:47.813Z,21.50
2024-01-31T09:24:50.200Z,21.38
2024-01-31T09:27:58.137Z,19.08
2024-01-31T09:31:00.757Z,16.83
2024-01-31T09:34:04.459Z,18.42
2024-01-31T09:37:09.372Z,15.88
2024-01-31T09:40:16.750Z,15.27
2024-01-31T09:43:21.636Z,15.90
2024-01-31T09:46:24.246Z,15.18
2024-01-31T09:49:27.004Z,16.45
2024-01-31T09:52:30.473Z,16.27
2024-01-31T09:55:33.926Z,16.45
2024-01-31T09:58:39.548Z,19.27
2024-01-31T10:01:44.306Z,14.82
2024-01-31T10:04:52.677Z,11.75
2024-01-31T10:08:04.473Z,15.95
2024-01-31T10:11:07.825Z,12.65
2024-01-31T10:14:11.098Z,12.95
2024-01-31T10:17:16.750Z,13.20
2024-01-31T10:20:19.523Z,13.40
2024-01-31T10:23:25.102Z,14.82
2024-01-31T10:26:28.261Z,11.02
2024-01-31T10:29:32.871Z,12.63
2024-01-31T10:32:39.867Z,15.18
2024-01-31T10:36:23.943Z,13.07
2024-01-31T10:39:08.359Z,12.70
2024-01-31T10:42:11.342Z,13.82
2024-01-31T10:45:16.249Z,14.48
2024-01-31T10:48:19.057Z,12.82
2024-01-31T10:51:24.741Z,12.25
2024-01-31T10:54:36.297Z,15.90
2024-01-31T10:57:39.834Z,13.88
2024-01-31T11:00:50.070Z,15.18
2024-01-31T11:03:52.616Z,15.98
2024-01-31T11:06:56.768Z,16.38
2024-01-31T11:09:59.366Z,14.35
2024-01-31T11:13:06.277Z,14.88
2024-01-31T11:16:08.853Z,13.63
2024-01-31T11:19:11.608Z,17.15
2024-01-31T11:22:14.096Z,16.33
2024-01-31T11:25:16.592Z,13.52
2024-01-31T11:28:20.078Z,15.75
2024-01-31T11:31:22.923Z,15.73
2024-01-31T11:34:29.532Z,14.35
2024-01-31T11:37:32.950Z,14.35
2024-01-31T11:40:39.062Z,24.05
2024-01-31T11:43:41.539Z,16.77
2024-01-31T11:46:43.979Z,19.10
2024-01-31T11:49:49.850Z,18.48
2024-01-31T11:52:52.769Z,17.73
2024-01-31T11:55:57.776Z,18.17
2024-01-31T11:59:00.727Z,20.63
2024-01-31T12:02:03.891Z,17.83
2024-01-31T12:05:07.904Z,20.70
2024-01-31T12:08:10.744Z,19.80
2024-01-31T12:11:14.722Z,17.88
2024-01-31T12:14:24.521Z,21.83
2024-01-31T12:17:27.913Z,18.50
2024-01-31T12:20:32.731Z,18.75
2024-01-31T12:23:35.528Z,19.20
2024-01-31T12:26:38.295Z,17.55
2024-01-31T12:29:43.487Z,17.77
2024-01-31T12:32:46.021Z,16.60
2024-01-31T12:35:51.539Z,17.65
2024-01-31T12:38:56.371Z,15.68
2024-01-31T12:41:59.294Z,16.08
2024-01-31T12:45:02.549Z,16.30
2024-01-31T12:48:05.916Z,15.55
2024-01-31T12:51:08.506Z,17.50
2024-01-31T12:54:12.138Z,18.27
2024-01-31T12:57:17.166Z,13.98
2024-01-31T13:00:19.961Z,13.85
2024-01-31T13:03:22.599Z,14.23
2024-01-31T13:06:25.731Z,15.90
2024-01-31T13:09:28.822Z,14.07
2024-01-31T13:12:31.464Z,14.77
2024-01-31T13:15:34.179Z,14.05
2024-01-31T13:18:37.374Z,11.43
2024-01-31T13:21:40.003Z,13.00
2024-01-31T13:24:48.281Z,15.45
2024-01-31T13:27:50.801Z,13.80
2024-01-31T13:30:53.261Z,15.00
2024-01-31T13:33:58.060Z,13.73
2024-01-31T13:37:02.131Z,14.60
2024-01-31T13:40:09.169Z,15.18
2024-01-31T13:43:16.987Z,15.10
2024-01-31T13:46:19.463Z,13.90
2024-01-31T13:49:22.122Z,14.43
2024-01-31T13:52:25.253Z,15.57
2024-01-31T13:55:30.407Z,14.23
2024-01-31T13:58:33.143Z,12.50
2024-01-31T14:01:35.691Z,15.38
2024-01-31T14:04:38.244Z,14.93
2024-01-31T14:07:43.853Z,13.32
2024-01-31T14:10:46.464Z,14.85
2024-01-31T14:13:49.072Z,18.55
2024-01-31T14:16:53.072Z,22.33
2024-01-31T14:19:59.061Z,20.98
2024-01-31T14:23:13.931Z,14.90
2024-01-31T14:29:31.222Z,17.08
2024-01-31T14:32:33.792Z,18.92
2024-01-31T14:35:38.551Z,17.77
2024-01-31T14:38:41.279Z,17.00
2024-01-31T14:41:46.626Z,18.50
2024-01-31T14:44:49.159Z,16.60
2024-01-31T14:47:51.996Z,12.70
2024-01-31T14:50:54.463Z,17.17
2024-01-31T14:53:57.037Z,16.00
2024-01-31T14:57:02.839Z,15.60
2024-01-31T15:00:05.939Z,18.33
2024-01-31T15:03:08.615Z,18.90
2024-01-31T15:06:12.406Z,16.33
2024-01-31T15:09:17.181Z,21.20
2024-01-31T15:12:22.229Z,18.13
2024-01-31T15:15:24.924Z,18.33
2024-01-31T15:18:32.224Z,21.40
2024-01-31T15:21:38.038Z,19.48
2024-01-31T15:24:40.557Z,20.52
2024-01-31T15:27:45.096Z,17.80
2024-01-31T15:30:47.633Z,20.60
2024-01-31T15:33:55.404Z,22.83
2024-01-31T15:37:00.949Z,22.60
2024-01-31T15:40:04.149Z,17.52
2024-01-31T15:43:08.846Z,18.80
2024-01-31T15:46:15.576Z,24.15
2024-01-31T15:49:20.271Z,20.33
2024-01-31T15:52:22.781Z,20.63
2024-01-31T15:55:25.307Z,21.30
2024-01-31T15:58:32.248Z,21.60
2024-01-31T16:01:34.707Z,20.48
2024-01-31T16:04:37.397Z,20.88
2024-01-31T16:07:40.241Z,20.20
2024-01-31T16:10:42.898Z,21.25
2024-01-31T16:13:45.445Z,20.83
2024-01-31T16:16:48.038Z,22.52
2024-01-31T16:19:50.747Z,23.77
2024-01-31T16:22:56.229Z,25.83
2024-01-31T16:25:59.502Z,22.13
2024-01-31T16:29:02.962Z,25.65
2024-01-31T16:32:05.895Z,23.08
2024-01-31T16:35:09.104Z,22.48
2024-01-31T16:38:12.902Z,23.02
2024-01-31T16:41:23.193Z,23.02
2024-01-31T16:44:27.560Z,25.27
2024-01-31T16:47:30.182Z,23.88
2024-01-31T16:50:38.368Z,25.38
2024-01-31T16:53:43.017Z,25.23
2024-01-31T16:56:47.675Z,27.80
2024-01-31T16:59:50.146Z,27.50
2024-01-31T17:02:52.747Z,25.95
2024-01-31T17:05:55.772Z,26.90
2024-01-31T17:08:58.701Z,28.45
2024-01-31T17:12:01.514Z,27.73
2024-01-31T17:15:12.425Z,25.10
2024-01-31T17:18:20.121Z,25.55
2024-01-31T17:21:24.401Z,26.70
2024-01-31T17:24:27.474Z,25.75
2024-01-31T17:27:30.140Z,24.95
2024-01-31T17:30:33.937Z,26.38
2024-01-31T17:36:47.540Z,25.52
2024-01-31T17:39:50.099Z,25.85
2024-01-31T17:42:55.069Z,25.10
2024-01-31T17:46:00.350Z,23.50
2024-01-31T17:49:03.436Z,25.27
2024-01-31T17:52:06.296Z,23.60
2024-01-31T17:55:09.791Z,23.95
2024-01-31T17:58:12.702Z,22.73
2024-01-31T18:01:20.284Z,25.10
2024-01-31T18:04:24.519Z,24.80
2024-01-31T18:07:30.270Z,23.73
2024-01-31T18:10:32.963Z,24.27
2024-01-31T18:13:36.128Z,22.40
2024-01-31T18:16:38.756Z,22.13
2024-01-31T18:19:44.976Z,22.65
2024-01-31T18:22:47.613Z,23.80
2024-01-31T18:25:50.052Z,27.70
2024-01-31T18:28:52.733Z,23.63
2024-01-31T18:31:55.545Z,21.85
2024-01-31T18:35:05.107Z,22.60
2024-01-31T18:38:07.849Z,22.83
2024-01-31T18:41:13.146Z,24.60
2024-01-31T18:44:15.997Z,26.27
2024-01-31T18:47:18.635Z,22.08
2024-01-31T18:50:22.155Z,24.52
2024-01-31T18:53:27.038Z,23.85
2024-01-31T18:56:32.253Z,22.10
2024-01-31T18:59:35.458Z,25.63
2024-01-31T19:02:37.913Z,22.95
2024-01-31T19:05:40.619Z,26.27
2024-01-31T19:08:46.549Z,25.67
2024-01-31T19:11:51.747Z,25.13
2024-01-31T19:14:56.945Z,23.52
2024-01-31T19:18:02.303Z,26.85
2024-01-31T19:21:08.384Z,25.63
2024-01-31T19:24:10.977Z,24.58
2024-01-31T19:27:15.019Z,23.80
2024-01-31T19:33:20.219Z,24.83
2024-01-31T19:36:27.262Z,26.77
2024-01-31T19:39:30.033Z,24.88
2024-01-31T19:42:32.620Z,28.30
2024-01-31T19:45:35.357Z,26.73
2024-01-31T19:48:40.576Z,27.88
2024-01-31T19:51:43.845Z,28.75
2024-01-31T19:54:47.084Z,26.00
2024-01-31T19:57:49.843Z,29.48
2024-01-31T20:00:52.388Z,28.05
2024-01-31T20:03:54.901Z,29.30
2024-01-31T20:06:57.514Z,27.45
2024-01-31T20:10:00.270Z,31.05
2024-01-31T20:13:02.913Z,29.48
2024-01-31T20:16:17.192Z,28.48
2024-01-31T20:19:19.876Z,31.15
2024-01-31T20:22:22.544Z,33.17
2024-01-31T20:25:27.866Z,33.05
2024-01-31T20:28:30.384Z,33.45
2024-01-31T20:31:32.854Z,32.45
2024-01-31T20:34:38.039Z,31.65
2024-01-31T20:37:40.636Z,31.80
2024-01-31T20:40:43.548Z,32.33
2024-01-31T20:43:46.478Z,32.72
2024-01-31T20:46:49.041Z,30.33
2024-01-31T20:49:51.679Z,31.27
2024-01-31T20:52:54.484Z,28.60
2024-01-31T20:55:56.964Z,30.92
2024-01-31T20:59:01.906Z,33.72
2024-01-31T21:02:04.762Z,33.97
2024-01-31T21:05:07.542Z,33.53
2024-01-31T21:08:10.290Z,32.80
2024-01-31T21:11:12.887Z,34.88
2024-01-31T21:14:15.412Z,35.10
2024-01-31T21:17:17.881Z,34.95
2024-01-31T21:20:20.546Z,33.33
2024-01-31T21:23:25.298Z,32.72
2024-01-31T21:26:30.195Z,36.03
2024-01-31T21:29:38.153Z,36.58
2024-01-31T21:32:42.991Z,40.88
2024-01-31T21:35:45.803Z,35.85
2024-01-31T21:38:48.436Z,38.05
2024-01-31T21:41:51.041Z,39.78
2024-01-31T21:44:53.703Z,39.90
2024-01-31T21:47:56.319Z,38.47
2024-01-31T21:51:01.821Z,37.35
2024-01-31T21:54:05.558Z,37.65
2024-01-31T21:57:08.782Z,35.95
2024-01-31T22:00:15.471Z,37.92
2024-01-31T22:03:21.831Z,38.63
2024-01-31T22:06:24.531Z,36.28
2024-01-31T22:09:27.164Z,38.75
2024-01-31T22:12:29.739Z,38.47
2024-01-31T22:15:32.319Z,35.10
2024-01-31T22:18:34.920Z,37.85
2024-01-31T22:21:42.606Z,37.70
2024-01-31T22:24:47.710Z,36.03
2024-01-31T22:27:50.325Z,35.13
2024-01-31T22:30:55.694Z,40.92
2024-01-31T22:33:58.941Z,42.13
2024-01-31T22:37:03.286Z,40.65
2024-01-31T22:40:09.043Z,41.15
2024-01-31T22:43:13.872Z,37.83
2024-01-31T22:46:18.810Z,39.35
2024-01-31T22:49:21.609Z,39.60
2024-01-31T22:52:27.369Z,40.97
2024-01-31T22:55:29.927Z,43.03
2024-01-31T22:58:32.737Z,40.22
2024-01-31T23:01:35.379Z,39.78
2024-01-31T23:04:39.076Z,41.40
2024-01-31T23:07:41.646Z,39.42
2024-01-31T23:10:44.245Z,37.83
2024-01-31T23:13:46.829Z,38.78
2024-01-31T23:16:49.520Z,39.72
2024-01-31T23:19:52.487Z,39.50
2024-01-31T23:22:55.195Z,40.65
2024-01-31T23:25:57.788Z,39.40
2024-01-31T23:29:00.996Z,35.72
2024-01-31T23:32:06.430Z,35.90
2024-01-31T23:35:09.122Z,38.92
2024-01-31T23:38:11.789Z,37.90
2024-01-31T23:41:14.362Z,38.83
2024-01-31T23:44:18.000Z,38.70
2024-01-31T23:47:22.294Z,39.88
2024-01-31T23:50:26.716Z,41.75
2024-01-31T23:53:29.320Z,39.53
2024-01-31T23:56:34.169Z,39.58
2024-01-31T23:59:36.676Z,39.42
